Time;durP1;ratioP1;P1;durP2;ratioP2;P2;SDS_P1;SDS_P2;PMS_P1;PMS_P2;Temp;Humidity;BMP_temperature;BMP_pressure;BME280_temperature;BME280_humidity;BME280_pressure;Samples;Min_cycle;Max_cycle;Signal;HPM_P1;HPM_P2
2021/05/19 00:00:09;;;;;;;31.85;16.02;;;12.30;59.80;;;;;;5056919;28;20050;-63
2021/05/19 00:02:37;;;;;;;27.58;13.90;;;12.30;59.80;;;;;;5055866;28;20036;-63
2021/05/19 00:05:04;;;;;;;29.75;14.80;;;12.30;59.80;;;;;;5058661;28;20025;-63
2021/05/19 00:07:32;;;;;;;34.05;15.40;;;12.20;59.80;;;;;;5046646;28;20066;-63
2021/05/19 00:09:57;;;;;;;37.33;17.92;;;12.20;59.80;;;;;;5049713;28;20089;-64
2021/05/19 00:12:25;;;;;;;42.15;20.35;;;12.20;59.90;;;;;;5047316;28;22222;-63
2021/05/19 00:14:55;;;;;;;29.10;15.50;;;12.20;59.90;;;;;;5047866;28;20063;-63
2021/05/19 00:17:25;;;;;;;33.03;16.17;;;12.20;60.00;;;;;;5053033;28;20494;-63
2021/05/19 00:19:54;;;;;;;30.77;15.43;;;12.10;59.90;;;;;;5050099;28;20040;-63
2021/05/19 00:22:19;;;;;;;22.75;11.40;;;12.10;60.00;;;;;;5047818;28;20087;-64
2021/05/19 00:24:45;;;;;;;27.60;10.52;;;12.00;60.00;;;;;;5050133;28;20036;-63
2021/05/19 00:27:13;;;;;;;24.13;12.63;;;12.00;60.00;;;;;;5047899;28;20072;-63
2021/05/19 00:29:41;;;;;;;19.92;10.90;;;;;;;;;;5055386;28;20044;-63
2021/05/19 00:32:07;;;;;;;27.80;14.98;;;;;;;;;;5047153;28;20462;-64
2021/05/19 00:34:32;;;;;;;22.15;13.20;;;;;;;;;;5049547;28;20067;-63
2021/05/19 00:36:58;;;;;;;23.17;12.70;;;;;;;;;;5054247;28;20127;-64
2021/05/19 00:39:24;;;;;;;32.65;14.77;;;;;;;;;;5050561;28;20517;-63
2021/05/19 00:41:53;;;;;;;26.00;14.48;;;;;;;;;;5048187;28;20037;-63
2021/05/19 00:44:21;;;;;;;27.80;14.63;;;;;;;;;;5035990;28;20067;-63
2021/05/19 00:46:48;;;;;;;30.88;15.40;;;;;;;;;;5047393;28;20498;-63
2021/05/19 00:49:16;;;;;;;32.90;17.70;;;;;;;;;;5046399;28;20582;-63
2021/05/19 00:51:44;;;;;;;42.97;18.80;;;;;;;;;;5048776;28;23458;-63
2021/05/19 00:54:11;;;;;;;38.35;19.92;;;;;;;;;;5048973;28;20040;-64
2021/05/19 00:56:36;;;;;;;41.13;20.17;;;;;;;;;;5051441;28;20128;-63
2021/05/19 00:59:04;;;;;;;37.50;19.05;;;;;;;;;;5050746;28;20052;-63
2021/05/19 01:01:35;;;;;;;39.08;19.15;;;;;;;;;;5053138;28;20045;-63
2021/05/19 01:04:03;;;;;;;35.25;19.17;;;11.90;60.00;;;;;;5046425;28;20075;-63
2021/05/19 01:06:39;;;;;;;33.30;17.35;;;11.70;60.40;;;;;;5045341;28;20044;-63
2021/05/19 01:11:51;;;;;;;42.17;20.05;;;11.60;60.40;;;;;;5045576;28;20093;-63
2021/05/19 01:14:17;;;;;;;44.13;20.48;;;11.50;60.40;;;;;;5049665;28;20044;-63
2021/05/19 01:16:43;;;;;;;40.10;19.42;;;11.50;60.50;;;;;;5047937;28;20044;-63
2021/05/19 01:19:13;;;;;;;38.22;19.73;;;11.50;60.50;;;;;;5051261;28;20036;-63
2021/05/19 01:21:41;;;;;;;38.65;19.20;;;11.50;60.50;;;;;;5049891;28;20043;-63
2021/05/19 01:24:07;;;;;;;45.65;20.75;;;11.50;60.60;;;;;;5054808;28;20402;-63
2021/05/19 01:26:37;;;;;;;34.17;16.90;;;11.50;60.60;;;;;;5049272;28;20040;-63
2021/05/19 01:29:06;;;;;;;33.55;14.35;;;11.50;60.70;;;;;;5048505;28;20864;-63
2021/05/19 01:31:36;;;;;;;30.77;14.32;;;11.50;60.70;;;;;;5061760;28;20135;-63
2021/05/19 01:34:02;;;;;;;30.45;15.15;;;11.40;60.60;;;;;;5054005;28;20071;-63
2021/05/19 01:36:30;;;;;;;31.98;16.88;;;11.40;60.60;;;;;;5043268;28;20064;-63
2021/05/19 01:38:58;;;;;;;40.47;18.08;;;11.40;60.60;;;;;;5048549;28;20484;-63
2021/05/19 01:41:26;;;;;;;43.42;19.88;;;11.40;60.60;;;;;;5058454;28;20033;-63
2021/05/19 01:43:54;;;;;;;47.92;19.98;;;11.40;60.70;;;;;;5050356;28;20047;-63
2021/05/19 01:46:19;;;;;;;49.00;21.73;;;11.40;60.80;;;;;;5049833;28;20106;-63
2021/05/19 01:48:53;;;;;;;40.67;20.27;;;11.40;60.80;;;;;;5046817;28;20545;-63
2021/05/19 01:51:21;;;;;;;45.92;19.88;;;11.40;61.00;;;;;;5049759;28;20063;-63
2021/05/19 01:53:47;;;;;;;38.35;19.27;;;11.40;61.00;;;;;;5047697;28;20039;-63
2021/05/19 01:56:17;;;;;;;41.53;20.00;;;11.30;60.90;;;;;;5044420;28;20036;-63
2021/05/19 01:58:43;;;;;;;39.15;19.40;;;11.30;61.00;;;;;;5046093;28;20052;-63
2021/05/19 02:01:11;;;;;;;39.63;19.25;;;11.30;60.90;;;;;;5050171;28;20058;-62
2021/05/19 02:03:39;;;;;;;33.83;15.80;;;11.20;60.80;;;;;;5045899;28;20387;-63
2021/05/19 02:06:05;;;;;;;45.03;19.25;;;11.20;60.90;;;;;;5044513;28;20168;-63
2021/05/19 02:08:30;;;;;;;32.80;16.60;;;11.20;60.90;;;;;;5048715;28;20123;-64
2021/05/19 02:10:58;;;;;;;33.92;16.15;;;11.20;60.90;;;;;;5047473;28;20123;-63
2021/05/19 02:13:24;;;;;;;37.50;18.15;;;11.20;61.00;;;;;;5050813;28;20044;-63
2021/05/19 02:15:54;;;;;;;38.75;18.77;;;11.20;61.00;;;;;;5046772;28;20056;-63
2021/05/19 02:18:22;;;;;;;40.67;17.92;;;11.20;61.10;;;;;;5050176;28;20752;-63
2021/05/19 02:20:48;;;;;;;39.17;18.60;;;11.20;61.10;;;;;;5047729;28;20135;-63
2021/05/19 02:23:13;;;;;;;37.88;18.50;;;11.20;61.20;;;;;;5052183;28;20033;-63
2021/05/19 02:25:39;;;;;;;40.47;18.63;;;11.20;61.10;;;;;;5044497;28;20036;-63
2021/05/19 02:28:05;;;;;;;35.53;17.00;;;11.20;61.20;;;;;;5040320;28;20033;-63
2021/05/19 02:30:31;;;;;;;38.05;17.83;;;11.20;61.10;;;;;;5043592;28;20575;-64
2021/05/19 02:32:59;;;;;;;33.63;15.73;;;11.20;61.10;;;;;;5039188;28;20032;-63
2021/05/19 02:35:27;;;;;;;34.38;16.85;;;11.20;61.00;;;;;;5039611;28;20121;-63
2021/05/19 02:37:52;;;;;;;38.63;18.45;;;11.10;61.00;;;;;;5042470;28;20051;-63
2021/05/19 02:40:18;;;;;;;37.78;18.88;;;11.10;61.00;;;;;;5050548;28;20024;-63
2021/05/19 02:42:48;;;;;;;38.08;16.98;;;11.00;61.10;;;;;;5045255;28;20039;-64
2021/05/19 02:45:16;;;;;;;51.60;20.05;;;11.00;61.10;;;;;;5042666;28;20056;-64
2021/05/19 02:47:46;;;;;;;46.83;21.10;;;11.00;61.10;;;;;;5044899;28;20039;-63
2021/05/19 02:50:16;;;;;;;46.72;20.50;;;11.00;61.10;;;;;;5042914;28;20039;-63
2021/05/19 02:52:44;;;;;;;37.70;17.23;;;11.00;61.10;;;;;;5045823;28;20071;-63
2021/05/19 02:55:11;;;;;;;40.15;17.90;;;11.00;61.10;;;;;;5043274;28;20047;-63
2021/05/19 02:57:39;;;;;;;48.80;18.65;;;10.90;61.10;;;;;;5044475;28;20033;-63
2021/05/19 03:00:08;;;;;;;43.30;19.00;;;10.90;61.10;;;;;;5047286;28;20123;-63
2021/05/19 03:02:34;;;;;;;36.63;18.08;;;10.90;61.20;;;;;;5047066;28;20131;-63
2021/05/19 03:05:03;;;;;;;41.13;17.98;;;10.90;61.20;;;;;;5039296;28;20490;-63
2021/05/19 03:07:33;;;;;;;45.40;20.20;;;10.90;61.20;;;;;;5045101;28;20422;-63
2021/05/19 03:09:59;;;;;;;40.40;17.63;;;11.00;61.40;;;;;;5040772;28;20039;-63
2021/05/19 03:12:27;;;;;;;45.63;18.60;;;11.00;61.50;;;;;;5045825;28;20028;-63
2021/05/19 03:14:52;;;;;;;34.45;15.70;;;11.00;61.50;;;;;;5043674;28;20036;-63
2021/05/19 03:17:20;;;;;;;20.88;11.20;;;11.00;61.50;;;;;;5045052;28;20953;-63
2021/05/19 03:19:48;;;;;;;31.83;15.00;;;11.00;61.40;;;;;;5047152;28;20530;-63
2021/05/19 03:22:14;;;;;;;30.92;14.60;;;11.00;61.30;;;;;;5049270;28;20036;-63
2021/05/19 03:24:42;;;;;;;30.27;13.90;;;10.90;61.20;;;;;;5049525;28;20614;-63
2021/05/19 03:27:10;;;;;;;32.97;15.23;;;10.90;61.20;;;;;;5045877;28;20896;-63
2021/05/19 03:29:38;;;;;;;31.63;15.40;;;10.90;61.20;;;;;;5048024;28;20040;-64
2021/05/19 03:32:11;;;;;;;32.85;15.23;;;10.90;61.30;;;;;;5038083;28;20580;-63
2021/05/19 03:34:36;;;;;;;40.63;17.83;;;10.80;61.20;;;;;;5045917;28;20101;-63
2021/05/19 03:37:07;;;;;;;41.85;19.20;;;10.80;61.20;;;;;;5046407;28;20460;-63
2021/05/19 03:39:37;;;;;;;47.05;19.98;;;10.70;61.30;;;;;;5050881;28;20050;-63
2021/05/19 03:42:03;;;;;;;51.25;22.55;;;10.70;61.20;;;;;;5045238;28;20697;-63
2021/05/19 03:44:28;;;;;;;62.50;23.88;;;10.70;61.30;;;;;;5046898;28;20045;-63
2021/05/19 03:46:54;;;;;;;61.50;22.73;;;10.70;61.40;;;;;;5050459;28;20571;-63
2021/05/19 03:49:22;;;;;;;59.22;22.38;;;10.70;61.50;;;;;;5043443;28;20536;-63
2021/05/19 03:51:48;;;;;;;56.83;22.35;;;10.70;61.60;;;;;;5042719;28;20044;-63
2021/05/19 03:54:16;;;;;;;48.28;19.58;;;10.70;61.60;;;;;;5047473;28;20920;-63
2021/05/19 03:56:45;;;;;;;37.90;17.48;;;10.70;61.60;;;;;;5043292;28;20052;-63
2021/05/19 03:59:10;;;;;;;36.20;16.90;;;10.70;61.60;;;;;;5041477;28;20040;-63
2021/05/19 04:01:38;;;;;;;41.20;16.42;;;10.70;61.60;;;;;;5042975;28;20409;-63
2021/05/19 04:04:04;;;;;;;47.92;18.25;;;10.70;61.70;;;;;;5053153;28;20447;-63
2021/05/19 04:06:32;;;;;;;52.58;18.73;;;10.70;61.70;;;;;;5040778;28;20055;-63
2021/05/19 04:09:06;;;;;;;48.10;19.45;;;10.70;61.80;;;;;;5046400;28;20048;-63
2021/05/19 04:11:34;;;;;;;48.28;18.95;;;10.70;61.80;;;;;;5045305;28;20087;-63
2021/05/19 04:14:02;;;;;;;54.60;19.60;;;10.70;61.80;;;;;;5044349;28;20094;-63
2021/05/19 04:16:27;;;;;;;45.58;18.45;;;10.80;61.80;;;;;;5049024;28;20041;-63
2021/05/19 04:18:56;;;;;;;49.17;20.05;;;10.80;61.80;;;;;;5043412;28;20059;-64
2021/05/19 04:21:26;;;;;;;59.22;22.25;;;10.80;61.80;;;;;;5050576;28;20071;-63
2021/05/19 04:23:54;;;;;;;56.83;21.45;;;10.80;61.80;;;;;;5048931;28;20047;-62
2021/05/19 04:26:22;;;;;;;59.80;24.10;;;10.80;61.90;;;;;;5051067;28;20124;-63
2021/05/19 04:28:48;;;;;;;56.00;23.27;;;10.90;62.00;;;;;;5048533;28;20047;-63
2021/05/19 04:31:16;;;;;;;64.68;24.52;;;10.90;62.10;;;;;;5052809;28;20044;-63
2021/05/19 04:33:44;;;;;;;57.65;23.52;;;11.00;62.20;;;;;;5038921;28;20102;-63
2021/05/19 04:36:12;;;;;;;186.68;29.98;;;11.00;62.10;;;;;;5047979;28;20043;-64
2021/05/19 04:38:42;;;;;;;71.70;26.23;;;11.00;62.20;;;;;;5053824;28;20048;-63
2021/05/19 04:41:08;;;;;;;60.10;22.83;;;11.00;62.10;;;;;;5051443;28;20094;-64
2021/05/19 04:43:34;;;;;;;62.55;23.08;;;11.00;62.10;;;;;;5052061;28;20037;-63
2021/05/19 04:46:00;;;;;;;63.75;23.95;;;11.10;62.20;;;;;;5051498;28;21145;-63
2021/05/19 04:48:27;;;;;;;64.10;23.63;;;11.10;62.30;;;;;;5053912;28;20036;-63
2021/05/19 04:50:53;;;;;;;51.53;20.92;;;11.20;62.40;;;;;;5051976;28;20090;-63
2021/05/19 04:53:19;;;;;;;48.88;19.98;;;11.20;62.40;;;;;;5045924;28;20745;-63
2021/05/19 04:55:46;;;;;;;47.53;19.95;;;11.30;62.60;;;;;;5055173;28;20036;-63
2021/05/19 04:58:15;;;;;;;46.30;19.52;;;11.30;62.60;;;;;;5058498;28;20081;-63
2021/05/19 05:00:40;;;;;;;53.53;22.40;;;11.40;62.60;;;;;;5052428;28;20041;-63
2021/05/19 05:03:08;;;;;;;80.65;28.10;;;11.50;62.80;;;;;;5055922;28;20044;-63
2021/05/19 05:05:36;;;;;;;75.80;27.90;;;11.60;63.80;;;;;;5053339;28;20108;-64
2021/05/19 05:08:04;;;;;;;78.07;28.35;;;11.70;63.30;;;;;;5044884;28;20752;-63
2021/05/19 05:10:29;;;;;;;79.38;30.92;;;11.80;63.50;;;;;;5053698;28;20044;-63
2021/05/19 05:12:55;;;;;;;84.45;30.48;;;12.00;63.60;;;;;;5060242;28;20024;-64
2021/05/19 05:15:22;;;;;;;83.30;32.58;;;12.10;63.60;;;;;;5057322;28;20544;-64
2021/05/19 05:17:50;;;;;;;81.55;30.15;;;12.30;63.60;;;;;;5054239;28;20029;-64
2021/05/19 05:20:16;;;;;;;85.15;31.33;;;12.40;63.60;;;;;;5058000;28;20039;-64
2021/05/19 05:22:44;;;;;;;83.30;30.38;;;12.50;63.60;;;;;;5054131;28;20040;-63
2021/05/19 05:25:13;;;;;;;83.93;32.47;;;12.60;63.70;;;;;;5059782;28;20123;-64
2021/05/19 05:27:41;;;;;;;93.63;32.80;;;12.70;63.90;;;;;;5051431;28;20040;-64
2021/05/19 05:30:07;;;;;;;84.90;32.78;;;12.90;64.10;;;;;;5060066;28;20033;-64
2021/05/19 05:32:33;;;;;;;86.32;33.92;;;13.10;64.20;;;;;;5055325;28;20037;-64
2021/05/19 05:34:59;;;;;;;85.43;33.53;;;13.40;64.30;;;;;;5051785;28;20529;-64
2021/05/19 05:37:27;;;;;;;77.55;32.25;;;13.60;64.90;;;;;;5055839;28;20036;-63
2021/05/19 05:39:55;;;;;;;85.28;36.13;;;13.80;64.40;;;;;;5055915;28;20051;-63
2021/05/19 05:42:25;;;;;;;67.00;33.83;;;14.10;65.40;;;;;;5058748;28;20036;-64
2021/05/19 05:44:51;;;;;;;53.85;29.25;;;;;;;;;;5042706;28;20062;-63
2021/05/19 05:47:17;;;;;;;45.65;25.73;;;14.80;65.80;;;;;;5040397;28;20635;-64
2021/05/19 05:49:42;;;;;;;41.97;24.50;;;15.40;63.20;;;;;;5046177;28;20735;-64
2021/05/19 05:52:10;;;;;;;39.00;22.90;;;15.50;62.90;;;;;;5043874;28;20059;-64
2021/05/19 05:54:36;;;;;;;39.13;21.80;;;15.60;62.80;;;;;;5052737;28;20469;-64
2021/05/19 05:57:02;;;;;;;34.67;19.88;;;15.70;62.40;;;;;;5050583;28;20136;-64
2021/05/19 05:59:29;;;;;;;31.92;19.02;;;15.80;62.10;;;;;;5045703;28;20093;-64
2021/05/19 06:01:57;;;;;;;30.33;19.13;;;15.80;61.80;;;;;;5046367;28;20036;-64
2021/05/19 06:04:23;;;;;;;25.60;17.00;;;15.90;61.80;;;;;;5048788;28;20622;-64
2021/05/19 06:06:48;;;;;;;23.60;15.02;;;16.00;61.40;;;;;;5040593;28;20063;-64
2021/05/19 06:09:14;;;;;;;22.55;15.40;;;16.10;61.30;;;;;;5048042;28;20045;-64
2021/05/19 06:11:39;;;;;;;22.65;15.60;;;16.20;60.80;;;;;;5044824;28;20089;-64
2021/05/19 06:14:05;;;;;;;24.55;14.27;;;16.30;60.70;;;;;;5043938;28;20131;-64
2021/05/19 06:16:31;;;;;;;22.52;14.27;;;16.50;60.40;;;;;;5047554;28;20897;-63
2021/05/19 06:18:58;;;;;;;21.73;13.95;;;16.60;59.90;;;;;;5049521;28;20124;-63
2021/05/19 06:21:24;;;;;;;17.13;12.57;;;16.60;59.50;;;;;;5042272;28;20079;-64
2021/05/19 06:23:50;;;;;;;19.40;13.80;;;16.70;58.90;;;;;;5044571;28;20685;-64
2021/05/19 06:26:18;;;;;;;22.02;13.38;;;16.70;58.60;;;;;;5043136;28;20041;-63
2021/05/19 06:28:46;;;;;;;21.15;13.60;;;16.60;58.30;;;;;;5049932;28;20532;-64
2021/05/19 06:31:16;;;;;;;20.38;13.90;;;16.50;58.00;;;;;;5046748;28;20666;-64
2021/05/19 06:33:44;;;;;;;19.38;12.55;;;16.30;57.90;;;;;;5041613;28;20098;-64
2021/05/19 06:36:11;;;;;;;25.40;13.90;;;16.20;58.10;;;;;;5048468;28;20035;-64
2021/05/19 06:38:37;;;;;;;18.83;12.27;;;16.10;58.30;;;;;;5040625;28;20105;-64
2021/05/19 06:41:05;;;;;;;19.65;13.65;;;16.00;58.50;;;;;;5047606;28;20044;-63
2021/05/19 06:43:33;;;;;;;21.65;13.10;;;15.90;58.60;;;;;;5041100;28;20102;-64
2021/05/19 06:45:59;;;;;;;24.98;14.00;;;15.90;58.90;;;;;;5044175;28;20083;-64
2021/05/19 06:48:24;;;;;;;23.63;14.38;;;15.90;59.10;;;;;;5033603;28;20796;-64
2021/05/19 06:50:52;;;;;;;20.13;13.23;;;15.90;59.30;;;;;;5037471;28;20679;-64
2021/05/19 06:53:18;;;;;;;21.17;13.60;;;16.10;59.30;;;;;;5039845;28;20780;-64
2021/05/19 06:55:48;;;;;;;19.25;12.93;;;16.10;59.30;;;;;;5038326;28;20124;-64
2021/05/19 06:58:14;;;;;;;21.10;13.25;;;16.20;59.30;;;;;;5041090;28;20079;-64
2021/05/19 07:00:39;;;;;;;21.08;12.90;;;16.20;59.30;;;;;;5035926;28;21065;-63
2021/05/19 07:03:05;;;;;;;21.95;13.48;;;16.20;58.60;;;;;;5033857;28;20040;-64
2021/05/19 07:05:32;;;;;;;19.85;13.10;;;16.20;58.50;;;;;;5042510;28;20040;-64
2021/05/19 07:07:58;;;;;;;17.88;12.75;;;16.20;58.30;;;;;;5027953;28;20522;-64
2021/05/19 07:10:23;;;;;;;23.13;12.65;;;16.20;58.30;;;;;;5041338;28;20052;-64
2021/05/19 07:12:51;;;;;;;23.40;14.15;;;16.10;58.40;;;;;;5038972;28;21059;-64
2021/05/19 07:15:18;;;;;;;18.60;13.25;;;16.10;58.50;;;;;;5046731;28;20828;-64
2021/05/19 07:17:44;;;;;;;21.85;14.02;;;16.20;58.50;;;;;;5043378;28;20850;-64
2021/05/19 07:20:18;;;;;;;24.35;13.23;;;16.20;58.50;;;;;;5040427;28;20055;-64
2021/05/19 07:22:46;;;;;;;17.60;12.13;;;16.20;58.50;;;;;;5046776;28;20097;-64
2021/05/19 07:25:11;;;;;;;20.40;12.27;;;16.30;58.40;;;;;;5041184;28;20043;-64
2021/05/19 07:27:39;;;;;;;19.77;12.48;;;16.30;58.40;;;;;;5038493;28;20036;-64
2021/05/19 07:30:08;;;;;;;20.08;12.30;;;16.40;58.40;;;;;;5036479;28;20095;-64
2021/05/19 07:32:33;;;;;;;17.98;11.65;;;16.60;58.70;;;;;;5044128;28;20110;-64
2021/05/19 07:34:59;;;;;;;16.88;11.00;;;16.70;58.20;;;;;;5038852;28;20048;-64
2021/05/19 07:37:26;;;;;;;18.95;11.07;;;16.90;57.80;;;;;;5034731;28;20064;-64
2021/05/19 07:39:55;;;;;;;17.98;10.82;;;;;;;;;;5036841;28;20044;-64
2021/05/19 07:42:23;;;;;;;16.65;11.25;;;;;;;;;;5041131;28;20061;-64
2021/05/19 07:44:49;;;;;;;14.93;10.68;;;;;;;;;;5046026;28;20040;-63
2021/05/19 07:47:18;;;;;;;15.93;10.68;;;;;;;;;;5045428;28;20048;-64
2021/05/19 07:49:44;;;;;;;15.63;9.82;;;;;;;;;;5039338;28;20036;-63
2021/05/19 07:52:09;;;;;;;16.48;9.30;;;17.10;57.60;;;;;;5042543;28;20033;-64
2021/05/19 07:54:37;;;;;;;17.50;9.70;;;18.30;55.00;;;;;;5045091;28;20395;-65
2021/05/19 07:57:15;;;;;;;12.80;8.93;;;18.30;54.60;;;;;;5039982;28;20033;-64
2021/05/19 07:59:43;;;;;;;16.95;8.85;;;18.30;54.30;;;;;;5036107;28;20048;-64
2021/05/19 08:02:10;;;;;;;13.82;8.75;;;18.20;54.10;;;;;;5041706;28;20114;-64
2021/05/19 08:04:37;;;;;;;15.35;9.48;;;18.20;54.20;;;;;;5051644;28;20516;-64
2021/05/19 08:07:04;;;;;;;14.32;8.90;;;18.30;54.40;;;;;;5047386;28;20442;-64
2021/05/19 08:09:31;;;;;;;17.83;10.00;;;;;;;;;;5042909;28;20040;-64
2021/05/19 08:11:59;;;;;;;12.93;8.32;;;;;;;;;;5046311;28;20032;-64
2021/05/19 08:14:29;;;;;;;14.32;7.75;;;18.40;54.00;;;;;;5046356;28;20043;-64
2021/05/19 08:16:56;;;;;;;11.00;7.05;;;;;;;;;;5041514;28;20043;-65
2021/05/19 08:19:22;;;;;;;10.25;6.85;;;;;;;;;;5044989;28;20052;-64
2021/05/19 08:21:52;;;;;;;13.90;7.43;;;19.30;54.30;;;;;;5038708;28;20097;-65
2021/05/19 08:24:20;;;;;;;12.73;7.82;;;22.10;46.60;;;;;;5048750;28;20037;-64
2021/05/19 08:26:46;;;;;;;9.88;7.05;;;;;;;;;;5048729;28;20047;-64
2021/05/19 08:29:14;;;;;;;9.80;7.03;;;;;;;;;;5036056;28;20048;-65
2021/05/19 08:31:40;;;;;;;11.75;6.35;;;;;;;;;;5045304;28;20101;-65
2021/05/19 08:34:08;;;;;;;11.55;6.15;;;;;;;;;;5040691;28;20040;-65
2021/05/19 08:36:34;;;;;;;8.85;5.65;;;;;;;;;;5044987;28;20117;-65
2021/05/19 08:39:02;;;;;;;10.45;5.55;;;;;;;;;;5040757;28;20105;-65
2021/05/19 08:41:28;;;;;;;8.15;5.85;;;;;;;;;;5046134;28;20120;-65
2021/05/19 08:43:56;;;;;;;6.72;5.28;;;;;;;;;;5032714;28;20037;-65
2021/05/19 08:46:22;;;;;;;8.13;5.20;;;;;;;;;;5041398;28;20044;-66
2021/05/19 08:48:59;;;;;;;10.13;5.70;;;;;;;;;;5041193;28;20037;-65
2021/05/19 08:51:27;;;;;;;7.72;5.10;;;;;;;;;;5045727;28;20033;-65
2021/05/19 08:53:56;;;;;;;5.68;4.50;;;;;;;;;;5044234;28;20037;-65
2021/05/19 08:56:22;;;;;;;12.20;6.05;;;;;;;;;;5049069;28;20485;-65
2021/05/19 08:58:48;;;;;;;9.25;5.10;;;;;;;;;;5045234;28;20037;-64
2021/05/19 09:01:24;;;;;;;8.40;5.32;;;;;;;;;;5038017;28;20608;-65
2021/05/19 09:04:06;;;;;;;9.05;4.75;;;;;;;;;;5044491;28;20044;-65
2021/05/19 09:06:34;;;;;;;9.02;5.20;;;;;;;;;;5039950;28;20032;-65
2021/05/19 09:09:18;;;;;;;8.60;4.97;;;;;;;;;;5036585;28;21276;-65
2021/05/19 09:12:11;;;;;;;8.60;5.47;;;22.20;46.20;;;;;;5046624;28;20461;-65
2021/05/19 09:14:45;;;;;;;10.82;5.38;;;32.60;27.50;;;;;;5037661;28;24378;-65
2021/05/19 09:17:33;;;;;;;8.25;4.90;;;;;;;;;;5045554;28;20121;-64
2021/05/19 09:19:59;;;;;;;9.48;5.45;;;;;;;;;;5046724;28;20068;-65
2021/05/19 09:22:28;;;;;;;9.75;5.40;;;;;;;;;;5041703;28;21020;-65
2021/05/19 09:24:54;;;;;;;9.40;5.00;;;;;;;;;;5047173;28;20047;-65
2021/05/19 09:27:21;;;;;;;9.20;4.40;;;;;;;;;;5048439;28;20045;-64
2021/05/19 09:29:53;;;;;;;9.93;5.35;;;;;;;;;;5042143;28;20910;-65
2021/05/19 09:32:22;;;;;;;10.82;4.95;;;;;;;;;;5045930;28;20040;-64
2021/05/19 09:34:52;;;;;;;7.95;4.03;;;;;;;;;;5037278;28;20113;-65
2021/05/19 09:37:21;;;;;;;5.65;3.90;;;;;;;;;;5053885;27;20070;-65
2021/05/19 09:39:57;;;;;;;6.80;4.50;;;;;;;;;;5045703;28;20139;-65
2021/05/19 09:42:28;;;;;;;8.57;4.57;;;;;;;;;;5040732;28;20043;-65
2021/05/19 09:44:57;;;;;;;9.52;4.25;;;;;;;;;;5042321;28;20039;-64
2021/05/19 09:47:36;;;;;;;7.05;4.47;;;;;;;;;;5037340;28;20048;-64
2021/05/19 09:50:06;;;;;;;8.55;4.68;;;32.00;27.10;;;;;;5049476;28;20044;-64
2021/05/19 09:52:34;;;;;;;9.48;4.20;;;;;;;;;;5035538;28;20098;-65
2021/05/19 09:55:13;;;;;;;6.65;4.57;;;;;;;;;;5047109;28;20046;-65
2021/05/19 09:57:45;;;;;;;9.55;4.90;;;32.60;26.10;;;;;;5040078;28;20075;-65
2021/05/19 10:00:14;;;;;;;10.82;4.32;;;;;;;;;;5043065;28;20051;-65
2021/05/19 10:02:43;;;;;;;10.48;4.47;;;;;;;;;;5051655;28;20045;-64
2021/05/19 10:05:13;;;;;;;15.43;5.85;;;;;;;;;;5044081;28;20040;-64
2021/05/19 10:07:41;;;;;;;8.73;5.15;;;;;;;;;;5045750;28;20044;-64
2021/05/19 10:10:08;;;;;;;10.00;5.30;;;;;;;;;;5046482;28;20073;-64
2021/05/19 10:12:38;;;;;;;9.10;5.65;;;34.20;23.90;;;;;;5044900;28;20171;-64
2021/05/19 10:15:10;;;;;;;8.52;5.35;;;28.30;28.60;;;;;;5048345;28;20040;-64
2021/05/19 10:17:51;;;;;;;10.75;5.85;;;27.30;29.90;;;;;;5041045;28;20729;-64
2021/05/19 10:20:22;;;;;;;11.10;6.72;;;;;;;;;;5044739;28;20070;-64
2021/05/19 10:22:49;;;;;;;21.08;8.90;;;;;;;;;;5048283;28;20039;-64
2021/05/19 10:25:37;;;;;;;18.95;8.93;;;26.30;31.30;;;;;;5038848;28;20048;-65
2021/05/19 10:28:05;;;;;;;20.08;9.30;;;;;;;;;;5039368;28;20037;-66
2021/05/19 10:30:39;;;;;;;19.65;9.80;;;24.00;36.10;;;;;;5036507;28;20064;-66
2021/05/19 10:33:25;;;;;;;21.27;10.02;;;22.50;39.50;;;;;;5042801;28;20809;-66
2021/05/19 10:35:53;;;;;;;17.20;10.27;;;21.90;41.60;;;;;;5039748;28;20111;-64
2021/05/19 10:38:25;;;;;;;17.23;8.88;;;21.40;42.90;;;;;;5042884;28;20143;-66
2021/05/19 10:40:54;;;;;;;15.85;10.18;;;21.20;44.10;;;;;;5044665;28;20033;-66
2021/05/19 10:43:21;;;;;;;16.23;9.48;;;21.20;45.70;;;;;;5040008;28;20048;-66
2021/05/19 10:45:49;;;;;;;11.00;7.07;;;21.50;45.60;;;;;;5045022;28;20040;-66
2021/05/19 10:48:35;;;;;;;10.00;7.57;;;21.80;44.60;;;;;;5041592;28;20101;-66
2021/05/19 10:51:36;;;;;;;14.02;7.20;;;21.80;43.80;;;;;;5050228;28;20048;-66
2021/05/19 11:00:12;;;;;;;10.15;5.53;;;22.80;44.10;;;;;;5042260;28;20101;-66
2021/05/19 11:03:05;;;;;;;13.70;5.97;;;23.30;42.70;;;;;;5039843;28;20043;-66
2021/05/19 11:05:38;;;;;;;8.48;5.50;;;23.70;43.60;;;;;;5045300;28;20037;-66
2021/05/19 11:08:11;;;;;;;6.97;5.10;;;24.00;43.70;;;;;;5046736;28;20673;-66
2021/05/19 11:11:16;;;;;;;10.25;4.63;;;24.30;42.70;;;;;;5045382;28;20040;-66
2021/05/19 11:13:54;;;;;;;8.02;4.43;;;;;;;;;;5038702;28;20043;-65
2021/05/19 11:16:31;;;;;;;7.20;5.03;;;;;;;;;;5049283;28;20089;-66
2021/05/19 11:19:10;;;;;;;8.68;5.25;;;24.60;42.10;;;;;;5045253;28;20124;-66
2021/05/19 11:21:37;;;;;;;10.18;5.38;;;25.00;40.40;;;;;;5049127;28;20075;-64
2021/05/19 11:24:11;;;;;;;8.30;5.55;;;24.80;41.20;;;;;;5048564;28;20797;-65
2021/05/19 11:26:39;;;;;;;8.35;4.80;;;24.80;42.20;;;;;;5049534;28;20160;-65
2021/05/19 11:29:05;;;;;;;8.43;5.85;;;24.90;40.70;;;;;;5040783;28;20514;-65
2021/05/19 11:31:40;;;;;;;9.15;5.28;;;24.60;40.40;;;;;;5053079;28;20033;-65
2021/05/19 11:34:06;;;;;;;8.43;4.60;;;24.30;40.90;;;;;;5050189;28;20585;-65
2021/05/19 11:36:40;;;;;;;8.70;4.60;;;23.90;41.40;;;;;;5047647;28;20133;-65
2021/05/19 11:39:25;;;;;;;7.57;4.15;;;23.80;42.40;;;;;;5058889;28;20043;-65
2021/05/19 11:42:11;;;;;;;6.75;4.43;;;23.70;41.60;;;;;;5055192;28;20041;-65
2021/05/19 11:44:41;;;;;;;5.82;4.20;;;23.50;42.40;;;;;;5055600;28;20049;-65
2021/05/19 11:47:09;;;;;;;10.63;4.53;;;23.30;43.20;;;;;;5071097;28;20035;-65
2021/05/19 11:49:36;;;;;;;7.05;4.78;;;23.20;43.80;;;;;;5051985;28;20033;-65
2021/05/19 11:52:04;;;;;;;7.88;5.00;;;23.00;44.30;;;;;;5049601;28;20032;-65
2021/05/19 11:54:32;;;;;;;6.15;4.20;;;22.90;44.90;;;;;;5054588;28;20054;-65
2021/05/19 11:57:05;;;;;;;6.85;3.83;;;22.80;44.60;;;;;;5053705;28;20039;-65
2021/05/19 11:59:35;;;;;;;9.93;4.22;;;22.70;44.40;;;;;;5041180;28;20040;-65
2021/05/19 12:02:13;;;;;;;5.60;3.85;;;22.60;44.70;;;;;;5056426;28;20148;-65
2021/05/19 12:04:41;;;;;;;6.43;3.80;;;22.40;44.10;;;;;;5056123;28;20609;-65
2021/05/19 12:07:10;;;;;;;8.13;3.90;;;22.20;44.00;;;;;;5053400;28;20090;-65
2021/05/19 12:09:40;;;;;;;10.68;3.53;;;22.00;44.00;;;;;;5046085;28;20040;-65
2021/05/19 12:12:15;;;;;;;5.68;3.80;;;21.80;44.80;;;;;;5055675;28;20040;-64
2021/05/19 12:14:58;;;;;;;6.30;3.80;;;21.60;45.60;;;;;;5048926;28;20524;-65
2021/05/19 12:17:24;;;;;;;8.35;4.60;;;21.40;46.10;;;;;;5048182;28;20749;-65
2021/05/19 12:19:50;;;;;;;6.22;4.38;;;21.30;46.60;;;;;;5051221;28;20157;-65
2021/05/19 12:22:18;;;;;;;9.18;5.25;;;21.20;47.30;;;;;;5048891;28;20071;-65
2021/05/19 12:24:49;;;;;;;7.00;4.95;;;21.10;47.60;;;;;;5048053;28;20068;-65
2021/05/19 12:27:19;;;;;;;5.47;4.32;;;21.10;47.60;;;;;;5052325;28;20032;-65
2021/05/19 12:29:47;;;;;;;8.27;5.05;;;21.10;46.70;;;;;;5043013;28;20039;-65
2021/05/19 12:32:23;;;;;;;7.53;4.57;;;21.10;46.90;;;;;;5048459;28;20568;-65
2021/05/19 12:35:09;;;;;;;6.72;4.63;;;21.10;47.00;;;;;;5055209;28;20033;-65
2021/05/19 12:37:43;;;;;;;7.72;4.97;;;21.20;47.60;;;;;;5051567;28;20043;-65
2021/05/19 12:40:12;;;;;;;8.50;5.25;;;21.20;46.40;;;;;;5051033;28;20475;-65
2021/05/19 12:42:43;;;;;;;6.50;4.97;;;21.30;46.30;;;;;;5046974;28;20558;-65
2021/05/19 12:45:13;;;;;;;6.53;4.38;;;21.20;46.90;;;;;;5051948;28;20123;-65
2021/05/19 12:47:39;;;;;;;7.20;4.78;;;21.20;46.80;;;;;;5039007;28;20501;-65
2021/05/19 12:50:08;;;;;;;6.50;4.30;;;21.20;46.80;;;;;;5042449;28;20529;-65
2021/05/19 12:52:37;;;;;;;10.98;5.15;;;21.20;47.60;;;;;;5047609;28;20106;-64
2021/05/19 12:55:10;;;;;;;8.25;5.30;;;21.10;47.20;;;;;;5050130;28;20044;-65
2021/05/19 12:57:36;;;;;;;9.35;5.50;;;21.00;47.60;;;;;;5047305;28;20032;-66
2021/05/19 13:00:15;;;;;;;8.13;5.50;;;20.90;47.70;;;;;;5034973;28;20056;-65
2021/05/19 13:02:48;;;;;;;8.05;5.53;;;20.90;47.00;;;;;;5044201;28;20047;-64
2021/05/19 13:05:23;;;;;;;14.32;7.35;;;21.00;47.00;;;;;;5049106;28;20052;-65
2021/05/19 13:07:52;;;;;;;10.70;7.68;;;21.10;47.20;;;;;;5047949;28;20129;-65
2021/05/19 13:10:35;;;;;;;14.55;7.90;;;21.20;46.90;;;;;;5048691;28;20685;-65
2021/05/19 13:13:17;;;;;;;10.63;8.35;;;21.30;47.00;;;;;;5050304;28;20053;-64